sensor_id;sensor_type;location;lat;lon;timestamp;P1;durP1;ratioP1;P2;durP2;ratioP2
10641;SDS011;5369;49.586;8.646;2023-05-20T00:00:27;4.07;;;3.00;;
10641;SDS011;5369;49.586;8.646;2023-05-20T00:02:54;4.37;;;3.20;;
10641;SDS011;5369;49.586;8.646;2023-05-20T00:05:21;3.80;;;2.93;;
10641;SDS011;5369;49.586;8.646;2023-05-20T00:07:48;5.30;;;2.90;;
10641;SDS011;5369;49.586;8.646;2023-05-20T00:10:14;3.87;;;3.00;;
10641;SDS011;5369;49.586;8.646;2023-05-20T00:12:40;4.53;;;3.00;;
10641;SDS011;5369;49.586;8.646;2023-05-20T00:15:06;6.90;;;3.00;;
10641;SDS011;5369;49.586;8.646;2023-05-20T00:17:32;4.53;;;3.20;;
10641;SDS011;5369;49.586;8.646;2023-05-20T00:19:59;3.83;;;3.00;;
10641;SDS011;5369;49.586;8.646;2023-05-20T00:22:25;4.17;;;3.10;;
10641;SDS011;5369;49.586;8.646;2023-05-20T00:24:51;4.33;;;2.80;;
10641;SDS011;5369;49.586;8.646;2023-05-20T00:27:17;5.20;;;3.23;;
10641;SDS011;5369;49.586;8.646;2023-05-20T00:29:43;4.47;;;2.97;;
10641;SDS011;5369;49.586;8.646;2023-05-20T00:32:10;3.80;;;2.90;;
10641;SDS011;5369;49.586;8.646;2023-05-20T00:34:36;4.53;;;3.10;;
10641;SDS011;5369;49.586;8.646;2023-05-20T00:37:02;9.83;;;3.13;;
10641;SDS011;5369;49.586;8.646;2023-05-20T00:39:28;3.77;;;3.13;;
10641;SDS011;5369;49.586;8.646;2023-05-20T00:41:54;4.27;;;3.30;;
10641;SDS011;5369;49.586;8.646;2023-05-20T00:44:25;3.97;;;2.93;;
10641;SDS011;5369;49.586;8.646;2023-05-20T00:46:51;4.00;;;3.07;;
10641;SDS011;5369;49.586;8.646;2023-05-20T00:49:18;4.40;;;2.87;;
10641;SDS011;5369;49.586;8.646;2023-05-20T00:51:45;3.47;;;2.90;;
10641;SDS011;5369;49.586;8.646;2023-05-20T00:54:12;5.00;;;3.00;;
10641;SDS011;5369;49.586;8.646;2023-05-20T00:56:38;7.13;;;2.80;;
10641;SDS011;5369;49.586;8.646;2023-05-20T00:59:05;3.83;;;2.70;;
10641;SDS011;5369;49.586;8.646;2023-05-20T01:01:31;3.60;;;3.03;;
10641;SDS011;5369;49.586;8.646;2023-05-20T01:03:58;4.27;;;3.60;;
10641;SDS011;5369;49.586;8.646;2023-05-20T01:06:24;4.33;;;2.93;;
10641;SDS011;5369;49.586;8.646;2023-05-20T01:08:50;4.97;;;3.37;;
10641;SDS011;5369;49.586;8.646;2023-05-20T01:11:27;5.47;;;3.10;;
10641;SDS011;5369;49.586;8.646;2023-05-20T01:13:55;4.80;;;3.00;;
10641;SDS011;5369;49.586;8.646;2023-05-20T01:16:22;4.37;;;3.20;;
10641;SDS011;5369;49.586;8.646;2023-05-20T01:18:48;4.30;;;2.90;;
10641;SDS011;5369;49.586;8.646;2023-05-20T01:21:16;3.37;;;3.00;;
10641;SDS011;5369;49.586;8.646;2023-05-20T01:23:42;5.50;;;3.37;;
10641;SDS011;5369;49.586;8.646;2023-05-20T01:26:08;4.93;;;3.60;;
10641;SDS011;5369;49.586;8.646;2023-05-20T01:28:38;4.67;;;3.40;;
10641;SDS011;5369;49.586;8.646;2023-05-20T01:31:04;4.17;;;3.20;;
10641;SDS011;5369;49.586;8.646;2023-05-20T01:33:32;4.00;;;3.20;;
10641;SDS011;5369;49.586;8.646;2023-05-20T01:35:59;3.47;;;3.00;;
10641;SDS011;5369;49.586;8.646;2023-05-20T01:38:25;3.80;;;3.27;;
10641;SDS011;5369;49.586;8.646;2023-05-20T01:40:52;5.07;;;3.20;;
10641;SDS011;5369;49.586;8.646;2023-05-20T01:43:19;4.53;;;3.33;;
10641;SDS011;5369;49.586;8.646;2023-05-20T01:45:46;4.77;;;3.30;;
10641;SDS011;5369;49.586;8.646;2023-05-20T01:48:12;6.37;;;3.60;;
10641;SDS011;5369;49.586;8.646;2023-05-20T01:50:39;5.40;;;3.20;;
10641;SDS011;5369;49.586;8.646;2023-05-20T01:53:05;3.90;;;3.20;;
10641;SDS011;5369;49.586;8.646;2023-05-20T01:55:35;7.07;;;3.80;;
10641;SDS011;5369;49.586;8.646;2023-05-20T01:58:01;3.70;;;3.30;;
10641;SDS011;5369;49.586;8.646;2023-05-20T02:00:27;6.17;;;3.70;;
10641;SDS011;5369;49.586;8.646;2023-05-20T02:02:54;3.70;;;3.40;;
10641;SDS011;5369;49.586;8.646;2023-05-20T02:05:20;5.67;;;3.70;;
10641;SDS011;5369;49.586;8.646;2023-05-20T02:07:46;4.00;;;3.60;;
10641;SDS011;5369;49.586;8.646;2023-05-20T02:10:12;4.47;;;3.30;;
10641;SDS011;5369;49.586;8.646;2023-05-20T02:12:39;4.50;;;3.10;;
10641;SDS011;5369;49.586;8.646;2023-05-20T02:15:05;6.33;;;3.60;;
10641;SDS011;5369;49.586;8.646;2023-05-20T02:17:31;5.17;;;3.33;;
10641;SDS011;5369;49.586;8.646;2023-05-20T02:19:57;4.60;;;3.60;;
10641;SDS011;5369;49.586;8.646;2023-05-20T02:22:25;5.13;;;4.03;;
10641;SDS011;5369;49.586;8.646;2023-05-20T02:24:51;5.37;;;3.30;;
10641;SDS011;5369;49.586;8.646;2023-05-20T02:27:17;3.60;;;3.20;;
10641;SDS011;5369;49.586;8.646;2023-05-20T02:29:43;5.17;;;3.57;;
10641;SDS011;5369;49.586;8.646;2023-05-20T02:32:10;3.90;;;3.30;;
10641;SDS011;5369;49.586;8.646;2023-05-20T02:34:36;4.77;;;3.50;;
10641;SDS011;5369;49.586;8.646;2023-05-20T02:37:03;4.17;;;3.50;;
10641;SDS011;5369;49.586;8.646;2023-05-20T02:39:29;3.90;;;2.80;;
10641;SDS011;5369;49.586;8.646;2023-05-20T02:41:56;3.17;;;2.83;;
10641;SDS011;5369;49.586;8.646;2023-05-20T02:44:22;7.23;;;3.53;;
10641;SDS011;5369;49.586;8.646;2023-05-20T02:46:48;3.90;;;3.17;;
10641;SDS011;5369;49.586;8.646;2023-05-20T02:49:14;3.77;;;3.13;;
10641;SDS011;5369;49.586;8.646;2023-05-20T02:51:41;4.00;;;3.43;;
10641;SDS011;5369;49.586;8.646;2023-05-20T02:54:07;5.33;;;3.50;;
10641;SDS011;5369;49.586;8.646;2023-05-20T02:56:33;3.80;;;3.30;;
10641;SDS011;5369;49.586;8.646;2023-05-20T02:59:00;4.20;;;3.23;;
10641;SDS011;5369;49.586;8.646;2023-05-20T03:01:27;5.10;;;3.60;;
10641;SDS011;5369;49.586;8.646;2023-05-20T03:03:53;5.00;;;3.37;;
10641;SDS011;5369;49.586;8.646;2023-05-20T03:06:19;4.77;;;3.30;;
10641;SDS011;5369;49.586;8.646;2023-05-20T03:08:47;3.57;;;3.20;;
10641;SDS011;5369;49.586;8.646;2023-05-20T03:11:14;3.90;;;3.17;;
10641;SDS011;5369;49.586;8.646;2023-05-20T03:13:40;4.90;;;3.30;;
10641;SDS011;5369;49.586;8.646;2023-05-20T03:16:06;4.47;;;3.40;;
10641;SDS011;5369;49.586;8.646;2023-05-20T03:18:32;4.93;;;3.90;;
10641;SDS011;5369;49.586;8.646;2023-05-20T03:20:58;5.77;;;3.70;;
10641;SDS011;5369;49.586;8.646;2023-05-20T03:23:25;5.30;;;3.33;;
10641;SDS011;5369;49.586;8.646;2023-05-20T03:25:51;4.03;;;3.10;;
10641;SDS011;5369;49.586;8.646;2023-05-20T03:28:17;3.73;;;3.27;;
10641;SDS011;5369;49.586;8.646;2023-05-20T03:30:43;4.60;;;3.33;;
10641;SDS011;5369;49.586;8.646;2023-05-20T03:33:10;3.27;;;2.97;;
10641;SDS011;5369;49.586;8.646;2023-05-20T03:35:36;4.33;;;3.20;;
10641;SDS011;5369;49.586;8.646;2023-05-20T03:38:02;3.60;;;3.30;;
10641;SDS011;5369;49.586;8.646;2023-05-20T03:40:29;5.77;;;3.30;;
10641;SDS011;5369;49.586;8.646;2023-05-20T03:42:55;3.57;;;3.13;;
10641;SDS011;5369;49.586;8.646;2023-05-20T03:45:22;4.17;;;3.17;;
10641;SDS011;5369;49.586;8.646;2023-05-20T03:48:07;5.33;;;3.70;;
10641;SDS011;5369;49.586;8.646;2023-05-20T03:50:34;5.07;;;3.20;;
10641;SDS011;5369;49.586;8.646;2023-05-20T03:53:00;4.27;;;3.40;;
10641;SDS011;5369;49.586;8.646;2023-05-20T03:55:31;6.70;;;3.40;;
10641;SDS011;5369;49.586;8.646;2023-05-20T03:57:58;6.43;;;3.60;;
10641;SDS011;5369;49.586;8.646;2023-05-20T04:00:25;4.27;;;3.30;;
10641;SDS011;5369;49.586;8.646;2023-05-20T04:02:51;4.53;;;3.47;;
10641;SDS011;5369;49.586;8.646;2023-05-20T04:05:18;3.57;;;3.13;;
10641;SDS011;5369;49.586;8.646;2023-05-20T04:07:45;5.67;;;3.60;;
10641;SDS011;5369;49.586;8.646;2023-05-20T04:10:12;4.87;;;3.73;;
10641;SDS011;5369;49.586;8.646;2023-05-20T04:12:38;5.07;;;3.70;;
10641;SDS011;5369;49.586;8.646;2023-05-20T04:15:06;4.83;;;3.70;;
10641;SDS011;5369;49.586;8.646;2023-05-20T04:17:40;5.37;;;3.63;;
10641;SDS011;5369;49.586;8.646;2023-05-20T04:20:07;7.20;;;3.60;;
10641;SDS011;5369;49.586;8.646;2023-05-20T04:22:35;4.63;;;3.50;;
10641;SDS011;5369;49.586;8.646;2023-05-20T04:25:03;5.70;;;3.63;;
10641;SDS011;5369;49.586;8.646;2023-05-20T04:27:30;4.17;;;3.30;;
10641;SDS011;5369;49.586;8.646;2023-05-20T04:29:59;4.87;;;3.70;;
10641;SDS011;5369;49.586;8.646;2023-05-20T04:32:31;5.40;;;3.67;;
10641;SDS011;5369;49.586;8.646;2023-05-20T04:35:00;5.63;;;3.60;;
10641;SDS011;5369;49.586;8.646;2023-05-20T04:37:28;4.13;;;3.50;;
10641;SDS011;5369;49.586;8.646;2023-05-20T04:39:56;4.73;;;3.57;;
10641;SDS011;5369;49.586;8.646;2023-05-20T04:42:22;4.47;;;4.00;;
10641;SDS011;5369;49.586;8.646;2023-05-20T04:44:48;4.17;;;3.70;;
10641;SDS011;5369;49.586;8.646;2023-05-20T04:47:14;3.87;;;3.50;;
10641;SDS011;5369;49.586;8.646;2023-05-20T04:49:41;6.63;;;3.70;;
10641;SDS011;5369;49.586;8.646;2023-05-20T04:52:07;5.13;;;3.97;;
10641;SDS011;5369;49.586;8.646;2023-05-20T04:54:33;4.67;;;3.13;;
10641;SDS011;5369;49.586;8.646;2023-05-20T04:57:02;5.90;;;3.47;;
10641;SDS011;5369;49.586;8.646;2023-05-20T04:59:28;4.33;;;3.60;;
10641;SDS011;5369;49.586;8.646;2023-05-20T05:01:54;4.07;;;3.67;;
10641;SDS011;5369;49.586;8.646;2023-05-20T05:04:21;4.57;;;3.73;;
10641;SDS011;5369;49.586;8.646;2023-05-20T05:06:47;5.50;;;3.80;;
10641;SDS011;5369;49.586;8.646;2023-05-20T05:09:14;5.10;;;3.80;;
10641;SDS011;5369;49.586;8.646;2023-05-20T05:11:41;5.50;;;3.87;;
10641;SDS011;5369;49.586;8.646;2023-05-20T05:14:08;4.83;;;4.10;;
10641;SDS011;5369;49.586;8.646;2023-05-20T05:16:34;6.17;;;4.60;;
10641;SDS011;5369;49.586;8.646;2023-05-20T05:19:01;4.93;;;4.43;;
10641;SDS011;5369;49.586;8.646;2023-05-20T05:21:30;7.00;;;4.77;;
10641;SDS011;5369;49.586;8.646;2023-05-20T05:23:59;5.97;;;4.70;;
10641;SDS011;5369;49.586;8.646;2023-05-20T05:26:25;6.97;;;4.80;;
10641;SDS011;5369;49.586;8.646;2023-05-20T05:28:53;5.03;;;4.40;;
10641;SDS011;5369;49.586;8.646;2023-05-20T05:31:19;6.43;;;4.60;;
10641;SDS011;5369;49.586;8.646;2023-05-20T05:33:45;6.37;;;4.77;;
10641;SDS011;5369;49.586;8.646;2023-05-20T05:36:12;5.90;;;4.43;;
10641;SDS011;5369;49.586;8.646;2023-05-20T05:38:38;5.60;;;4.30;;
10641;SDS011;5369;49.586;8.646;2023-05-20T05:41:05;5.83;;;4.90;;
10641;SDS011;5369;49.586;8.646;2023-05-20T05:43:32;5.20;;;4.70;;
10641;SDS011;5369;49.586;8.646;2023-05-20T05:45:58;5.37;;;4.87;;
10641;SDS011;5369;49.586;8.646;2023-05-20T05:48:24;6.47;;;4.63;;
10641;SDS011;5369;49.586;8.646;2023-05-20T05:50:50;6.40;;;4.87;;
10641;SDS011;5369;49.586;8.646;2023-05-20T05:53:19;5.63;;;4.93;;
10641;SDS011;5369;49.586;8.646;2023-05-20T05:55:47;6.37;;;4.90;;
10641;SDS011;5369;49.586;8.646;2023-05-20T05:58:14;7.83;;;4.90;;
10641;SDS011;5369;49.586;8.646;2023-05-20T06:00:42;5.57;;;5.00;;
10641;SDS011;5369;49.586;8.646;2023-05-20T06:03:08;6.40;;;5.00;;
10641;SDS011;5369;49.586;8.646;2023-05-20T06:05:36;5.97;;;4.80;;
10641;SDS011;5369;49.586;8.646;2023-05-20T06:08:02;5.80;;;5.20;;
10641;SDS011;5369;49.586;8.646;2023-05-20T06:10:31;5.27;;;4.77;;
10641;SDS011;5369;49.586;8.646;2023-05-20T06:12:57;6.43;;;5.20;;
10641;SDS011;5369;49.586;8.646;2023-05-20T06:15:25;6.83;;;4.83;;
10641;SDS011;5369;49.586;8.646;2023-05-20T06:17:51;5.27;;;4.77;;
10641;SDS011;5369;49.586;8.646;2023-05-20T06:20:17;5.83;;;4.90;;
10641;SDS011;5369;49.586;8.646;2023-05-20T06:22:43;4.77;;;4.37;;
10641;SDS011;5369;49.586;8.646;2023-05-20T06:25:10;5.80;;;5.20;;
10641;SDS011;5369;49.586;8.646;2023-05-20T06:27:37;6.17;;;5.07;;
10641;SDS011;5369;49.586;8.646;2023-05-20T06:30:05;6.63;;;5.57;;
10641;SDS011;5369;49.586;8.646;2023-05-20T06:32:32;5.80;;;5.17;;
10641;SDS011;5369;49.586;8.646;2023-05-20T06:34:58;6.27;;;4.97;;
10641;SDS011;5369;49.586;8.646;2023-05-20T06:37:25;5.40;;;4.90;;
10641;SDS011;5369;49.586;8.646;2023-05-20T06:39:51;7.57;;;5.00;;
10641;SDS011;5369;49.586;8.646;2023-05-20T06:42:19;5.57;;;4.93;;
10641;SDS011;5369;49.586;8.646;2023-05-20T06:44:48;8.77;;;5.13;;
10641;SDS011;5369;49.586;8.646;2023-05-20T06:47:31;5.03;;;4.53;;
10641;SDS011;5369;49.586;8.646;2023-05-20T06:49:57;6.60;;;5.30;;
10641;SDS011;5369;49.586;8.646;2023-05-20T06:52:24;6.43;;;4.70;;
10641;SDS011;5369;49.586;8.646;2023-05-20T06:54:51;5.17;;;4.67;;
10641;SDS011;5369;49.586;8.646;2023-05-20T06:57:18;5.70;;;5.10;;
10641;SDS011;5369;49.586;8.646;2023-05-20T06:59:44;5.10;;;4.60;;
10641;SDS011;5369;49.586;8.646;2023-05-20T07:02:12;4.57;;;4.17;;
10641;SDS011;5369;49.586;8.646;2023-05-20T07:04:38;5.23;;;4.73;;
10641;SDS011;5369;49.586;8.646;2023-05-20T07:07:04;5.47;;;4.90;;
10641;SDS011;5369;49.586;8.646;2023-05-20T07:09:30;5.17;;;4.67;;
10641;SDS011;5369;49.586;8.646;2023-05-20T07:11:57;6.60;;;4.97;;
10641;SDS011;5369;49.586;8.646;2023-05-20T07:14:23;6.27;;;5.13;;
10641;SDS011;5369;49.586;8.646;2023-05-20T07:16:49;7.73;;;4.97;;
10641;SDS011;5369;49.586;8.646;2023-05-20T07:19:16;5.87;;;5.27;;
10641;SDS011;5369;49.586;8.646;2023-05-20T07:21:42;5.40;;;4.90;;
10641;SDS011;5369;49.586;8.646;2023-05-20T07:24:11;5.53;;;4.93;;
10641;SDS011;5369;49.586;8.646;2023-05-20T07:26:37;5.60;;;5.00;;
10641;SDS011;5369;49.586;8.646;2023-05-20T07:29:03;5.93;;;4.33;;
10641;SDS011;5369;49.586;8.646;2023-05-20T07:31:30;5.33;;;4.70;;
10641;SDS011;5369;49.586;8.646;2023-05-20T07:33:57;5.73;;;4.43;;
10641;SDS011;5369;49.586;8.646;2023-05-20T07:36:27;5.20;;;4.70;;
10641;SDS011;5369;49.586;8.646;2023-05-20T07:38:54;4.80;;;4.40;;
10641;SDS011;5369;49.586;8.646;2023-05-20T07:41:21;4.97;;;4.57;;
10641;SDS011;5369;49.586;8.646;2023-05-20T07:43:47;8.30;;;5.00;;
10641;SDS011;5369;49.586;8.646;2023-05-20T07:46:13;5.37;;;4.70;;
10641;SDS011;5369;49.586;8.646;2023-05-20T07:48:41;5.57;;;5.07;;
10641;SDS011;5369;49.586;8.646;2023-05-20T07:51:07;4.93;;;4.47;;
10641;SDS011;5369;49.586;8.646;2023-05-20T07:53:35;5.57;;;5.07;;
10641;SDS011;5369;49.586;8.646;2023-05-20T07:56:01;5.30;;;4.80;;
10641;SDS011;5369;49.586;8.646;2023-05-20T07:58:30;5.80;;;5.20;;
10641;SDS011;5369;49.586;8.646;2023-05-20T08:00:56;6.03;;;4.70;;
10641;SDS011;5369;49.586;8.646;2023-05-20T08:03:23;5.27;;;4.77;;
10641;SDS011;5369;49.586;8.646;2023-05-20T08:05:57;5.30;;;4.80;;
10641;SDS011;5369;49.586;8.646;2023-05-20T08:08:23;7.23;;;4.73;;
10641;SDS011;5369;49.586;8.646;2023-05-20T08:10:57;5.70;;;4.90;;
10641;SDS011;5369;49.586;8.646;2023-05-20T08:13:25;6.83;;;4.80;;
10641;SDS011;5369;49.586;8.646;2023-05-20T08:15:55;7.37;;;5.50;;
10641;SDS011;5369;49.586;8.646;2023-05-20T08:18:23;6.70;;;6.00;;
10641;SDS011;5369;49.586;8.646;2023-05-20T08:20:49;5.77;;;5.27;;
10641;SDS011;5369;49.586;8.646;2023-05-20T08:23:15;6.17;;;5.53;;
10641;SDS011;5369;49.586;8.646;2023-05-20T08:25:42;8.20;;;5.53;;
10641;SDS011;5369;49.586;8.646;2023-05-20T08:28:11;9.17;;;5.70;;
10641;SDS011;5369;49.586;8.646;2023-05-20T08:30:37;6.63;;;5.57;;
10641;SDS011;5369;49.586;8.646;2023-05-20T08:33:04;6.77;;;5.83;;
10641;SDS011;5369;49.586;8.646;2023-05-20T08:35:30;6.40;;;5.67;;
10641;SDS011;5369;49.586;8.646;2023-05-20T08:37:56;8.63;;;6.17;;
10641;SDS011;5369;49.586;8.646;2023-05-20T08:40:25;7.03;;;6.33;;
10641;SDS011;5369;49.586;8.646;2023-05-20T08:42:51;7.70;;;5.80;;
10641;SDS011;5369;49.586;8.646;2023-05-20T08:45:19;5.83;;;5.13;;
10641;SDS011;5369;49.586;8.646;2023-05-20T08:47:51;6.30;;;5.70;;
10641;SDS011;5369;49.586;8.646;2023-05-20T08:50:17;7.50;;;6.00;;
10641;SDS011;5369;49.586;8.646;2023-05-20T08:52:44;6.70;;;6.00;;
10641;SDS011;5369;49.586;8.646;2023-05-20T08:55:15;7.47;;;5.93;;
10641;SDS011;5369;49.586;8.646;2023-05-20T08:57:42;9.70;;;5.97;;
10641;SDS011;5369;49.586;8.646;2023-05-20T09:00:10;6.17;;;5.53;;
10641;SDS011;5369;49.586;8.646;2023-05-20T09:02:40;8.17;;;6.13;;
10641;SDS011;5369;49.586;8.646;2023-05-20T09:05:08;6.10;;;5.50;;
10641;SDS011;5369;49.586;8.646;2023-05-20T09:07:35;7.13;;;6.07;;
10641;SDS011;5369;49.586;8.646;2023-05-20T09:10:01;7.57;;;5.77;;
10641;SDS011;5369;49.586;8.646;2023-05-20T09:12:28;6.70;;;6.00;;
10641;SDS011;5369;49.586;8.646;2023-05-20T09:14:54;6.30;;;5.70;;
10641;SDS011;5369;49.586;8.646;2023-05-20T09:17:20;7.43;;;5.57;;
10641;SDS011;5369;49.586;8.646;2023-05-20T09:19:51;6.40;;;5.80;;
10641;SDS011;5369;49.586;8.646;2023-05-20T09:22:21;7.23;;;6.37;;
10641;SDS011;5369;49.586;8.646;2023-05-20T09:24:49;6.13;;;5.53;;
10641;SDS011;5369;49.586;8.646;2023-05-20T09:27:15;6.97;;;5.90;;
10641;SDS011;5369;49.586;8.646;2023-05-20T09:29:41;6.30;;;5.40;;
10641;SDS011;5369;49.586;8.646;2023-05-20T09:32:12;6.87;;;6.17;;
10641;SDS011;5369;49.586;8.646;2023-05-20T09:34:38;6.77;;;6.07;;
10641;SDS011;5369;49.586;8.646;2023-05-20T09:37:09;6.70;;;6.00;;
10641;SDS011;5369;49.586;8.646;2023-05-20T09:39:38;6.47;;;5.87;;
10641;SDS011;5369;49.586;8.646;2023-05-20T09:42:23;7.77;;;6.33;;
10641;SDS011;5369;49.586;8.646;2023-05-20T09:44:51;8.43;;;5.53;;
10641;SDS011;5369;49.586;8.646;2023-05-20T09:47:22;6.33;;;5.70;;
10641;SDS011;5369;49.586;8.646;2023-05-20T09:49:50;6.80;;;6.10;;
10641;SDS011;5369;49.586;8.646;2023-05-20T09:52:17;5.93;;;5.33;;
10641;SDS011;5369;49.586;8.646;2023-05-20T09:54:44;5.80;;;5.30;;
10641;SDS011;5369;49.586;8.646;2023-05-20T09:57:10;6.93;;;5.93;;
10641;SDS011;5369;49.586;8.646;2023-05-20T09:59:38;6.33;;;5.77;;
10641;SDS011;5369;49.586;8.646;2023-05-20T10:02:05;7.67;;;6.50;;
10641;SDS011;5369;49.586;8.646;2023-05-20T10:04:32;7.30;;;6.60;;
10641;SDS011;5369;49.586;8.646;2023-05-20T10:07:04;6.77;;;6.17;;
10641;SDS011;5369;49.586;8.646;2023-05-20T10:12:25;6.73;;;5.73;;
10641;SDS011;5369;49.586;8.646;2023-05-20T10:19:56;6.30;;;5.80;;
10641;SDS011;5369;49.586;8.646;2023-05-20T10:22:27;6.27;;;5.67;;
10641;SDS011;5369;49.586;8.646;2023-05-20T10:25:03;7.67;;;5.30;;
10641;SDS011;5369;49.586;8.646;2023-05-20T10:27:40;6.80;;;5.70;;
10641;SDS011;5369;49.586;8.646;2023-05-20T10:30:13;6.70;;;6.10;;
10641;SDS011;5369;49.586;8.646;2023-05-20T10:32:47;7.10;;;6.50;;
10641;SDS011;5369;49.586;8.646;2023-05-20T10:35:19;7.43;;;6.10;;
10641;SDS011;5369;49.586;8.646;2023-05-20T10:37:46;6.80;;;6.17;;
10641;SDS011;5369;49.586;8.646;2023-05-20T10:40:13;7.33;;;6.10;;
10641;SDS011;5369;49.586;8.646;2023-05-20T10:42:40;6.57;;;5.87;;
10641;SDS011;5369;49.586;8.646;2023-05-20T10:45:07;8.43;;;6.33;;
10641;SDS011;5369;49.586;8.646;2023-05-20T10:47:33;6.47;;;5.87;;
10641;SDS011;5369;49.586;8.646;2023-05-20T10:50:00;7.87;;;6.03;;
10641;SDS011;5369;49.586;8.646;2023-05-20T10:52:31;6.90;;;6.20;;
10641;SDS011;5369;49.586;8.646;2023-05-20T10:54:58;6.60;;;6.00;;
10641;SDS011;5369;49.586;8.646;2023-05-20T10:57:26;6.43;;;5.57;;
10641;SDS011;5369;49.586;8.646;2023-05-20T10:59:52;6.67;;;5.97;;
10641;SDS011;5369;49.586;8.646;2023-05-20T11:02:19;8.30;;;6.40;;
10641;SDS011;5369;49.586;8.646;2023-05-20T11:04:56;6.70;;;6.10;;
10641;SDS011;5369;49.586;8.646;2023-05-20T11:07:23;7.00;;;6.30;;
10641;SDS011;5369;49.586;8.646;2023-05-20T11:09:50;7.57;;;6.00;;
10641;SDS011;5369;49.586;8.646;2023-05-20T11:12:16;6.63;;;5.93;;
10641;SDS011;5369;49.586;8.646;2023-05-20T11:14:42;7.20;;;6.50;;
10641;SDS011;5369;49.586;8.646;2023-05-20T11:17:09;8.03;;;5.90;;
10641;SDS011;5369;49.586;8.646;2023-05-20T11:19:36;7.40;;;6.10;;
10641;SDS011;5369;49.586;8.646;2023-05-20T11:22:02;6.60;;;6.03;;
10641;SDS011;5369;49.586;8.646;2023-05-20T11:24:28;6.70;;;6.13;;
10641;SDS011;5369;49.586;8.646;2023-05-20T11:26:55;7.10;;;6.13;;
10641;SDS011;5369;49.586;8.646;2023-05-20T11:29:22;6.90;;;6.20;;
10641;SDS011;5369;49.586;8.646;2023-05-20T11:31:48;9.03;;;6.70;;
10641;SDS011;5369;49.586;8.646;2023-05-20T11:34:18;7.07;;;6.37;;
10641;SDS011;5369;49.586;8.646;2023-05-20T11:36:45;8.17;;;6.10;;
10641;SDS011;5369;49.586;8.646;2023-05-20T11:39:12;7.57;;;6.10;;
10641;SDS011;5369;49.586;8.646;2023-05-20T11:41:41;6.73;;;6.13;;
10641;SDS011;5369;49.586;8.646;2023-05-20T11:44:10;7.97;;;6.50;;
10641;SDS011;5369;49.586;8.646;2023-05-20T11:46:40;7.03;;;6.40;;
10641;SDS011;5369;49.586;8.646;2023-05-20T11:49:07;6.87;;;6.17;;
10641;SDS011;5369;49.586;8.646;2023-05-20T11:51:33;7.23;;;6.53;;
10641;SDS011;5369;49.586;8.646;2023-05-20T11:54:03;6.80;;;6.10;;
10641;SDS011;5369;49.586;8.646;2023-05-20T11:56:30;6.80;;;5.90;;
10641;SDS011;5369;49.586;8.646;2023-05-20T11:59:00;6.83;;;6.23;;
10641;SDS011;5369;49.586;8.646;2023-05-20T12:01:30;7.70;;;6.10;;
10641;SDS011;5369;49.586;8.646;2023-05-20T12:03:58;6.50;;;5.90;;
10641;SDS011;5369;49.586;8.646;2023-05-20T12:06:24;8.27;;;6.23;;
10641;SDS011;5369;49.586;8.646;2023-05-20T12:08:50;7.07;;;6.47;;
10641;SDS011;5369;49.586;8.646;2023-05-20T12:11:17;7.83;;;6.00;;
10641;SDS011;5369;49.586;8.646;2023-05-20T12:13:43;6.97;;;6.27;;
10641;SDS011;5369;49.586;8.646;2023-05-20T12:16:09;7.00;;;6.33;;
10641;SDS011;5369;49.586;8.646;2023-05-20T12:18:35;6.53;;;5.93;;
10641;SDS011;5369;49.586;8.646;2023-05-20T12:21:01;6.37;;;5.77;;
10641;SDS011;5369;49.586;8.646;2023-05-20T12:23:28;7.47;;;6.67;;
10641;SDS011;5369;49.586;8.646;2023-05-20T12:25:58;7.20;;;6.50;;
10641;SDS011;5369;49.586;8.646;2023-05-20T12:28:24;7.20;;;6.53;;
10641;SDS011;5369;49.586;8.646;2023-05-20T12:30:50;6.97;;;6.37;;
10641;SDS011;5369;49.586;8.646;2023-05-20T12:33:16;6.50;;;5.90;;
10641;SDS011;5369;49.586;8.646;2023-05-20T12:35:42;6.90;;;6.30;;
10641;SDS011;5369;49.586;8.646;2023-05-20T12:38:09;6.50;;;5.90;;
10641;SDS011;5369;49.586;8.646;2023-05-20T12:40:35;6.60;;;6.00;;
10641;SDS011;5369;49.586;8.646;2023-05-20T12:43:02;7.00;;;6.30;;
10641;SDS011;5369;49.586;8.646;2023-05-20T12:45:28;6.73;;;5.73;;
10641;SDS011;5369;49.586;8.646;2023-05-20T12:47:55;6.43;;;5.83;;
10641;SDS011;5369;49.586;8.646;2023-05-20T12:50:21;6.97;;;6.30;;
10641;SDS011;5369;49.586;8.646;2023-05-20T12:52:48;6.80;;;6.10;;
10641;SDS011;5369;49.586;8.646;2023-05-20T12:55:14;7.70;;;5.77;;
10641;SDS011;5369;49.586;8.646;2023-05-20T12:57:40;6.20;;;5.70;;
10641;SDS011;5369;49.586;8.646;2023-05-20T13:00:08;7.70;;;6.70;;
10641;SDS011;5369;49.586;8.646;2023-05-20T13:02:35;6.37;;;5.77;;
10641;SDS011;5369;49.586;8.646;2023-05-20T13:05:01;7.00;;;6.00;;
10641;SDS011;5369;49.586;8.646;2023-05-20T13:07:27;6.60;;;5.93;;
10641;SDS011;5369;49.586;8.646;2023-05-20T13:09:53;6.10;;;5.57;;
10641;SDS011;5369;49.586;8.646;2023-05-20T13:12:20;6.50;;;5.90;;
10641;SDS011;5369;49.586;8.646;2023-05-20T13:14:46;6.13;;;5.63;;
10641;SDS011;5369;49.586;8.646;2023-05-20T13:17:12;8.97;;;6.40;;
10641;SDS011;5369;49.586;8.646;2023-05-20T13:19:38;5.93;;;5.33;;
10641;SDS011;5369;49.586;8.646;2023-05-20T13:22:04;6.97;;;6.30;;
10641;SDS011;5369;49.586;8.646;2023-05-20T13:24:31;6.50;;;5.80;;
10641;SDS011;5369;49.586;8.646;2023-05-20T13:26:57;6.17;;;5.57;;
10641;SDS011;5369;49.586;8.646;2023-05-20T13:29:25;6.70;;;5.83;;
10641;SDS011;5369;49.586;8.646;2023-05-20T13:31:51;6.03;;;5.53;;
10641;SDS011;5369;49.586;8.646;2023-05-20T13:34:17;6.13;;;5.63;;
10641;SDS011;5369;49.586;8.646;2023-05-20T13:36:43;7.97;;;5.70;;
10641;SDS011;5369;49.586;8.646;2023-05-20T13:39:12;6.00;;;5.47;;
10641;SDS011;5369;49.586;8.646;2023-05-20T13:41:38;6.10;;;5.50;;
10641;SDS011;5369;49.586;8.646;2023-05-20T13:44:04;6.03;;;5.50;;
10641;SDS011;5369;49.586;8.646;2023-05-20T13:46:31;5.73;;;5.30;;
10641;SDS011;5369;49.586;8.646;2023-05-20T13:48:57;7.57;;;5.80;;
10641;SDS011;5369;49.586;8.646;2023-05-20T13:51:23;6.03;;;5.43;;
10641;SDS011;5369;49.586;8.646;2023-05-20T13:53:49;6.10;;;5.50;;
10641;SDS011;5369;49.586;8.646;2023-05-20T13:56:15;6.47;;;5.83;;
10641;SDS011;5369;49.586;8.646;2023-05-20T13:58:41;5.93;;;5.43;;
10641;SDS011;5369;49.586;8.646;2023-05-20T14:01:07;7.53;;;5.90;;
10641;SDS011;5369;49.586;8.646;2023-05-20T14:03:36;6.60;;;6.00;;
10641;SDS011;5369;49.586;8.646;2023-05-20T14:06:04;6.40;;;5.90;;
10641;SDS011;5369;49.586;8.646;2023-05-20T14:08:31;6.07;;;5.57;;
10641;SDS011;5369;49.586;8.646;2023-05-20T14:10:57;7.17;;;5.97;;
10641;SDS011;5369;49.586;8.646;2023-05-20T14:13:23;6.90;;;6.20;;
10641;SDS011;5369;49.586;8.646;2023-05-20T14:15:49;6.57;;;5.97;;
10641;SDS011;5369;49.586;8.646;2023-05-20T14:18:16;6.67;;;6.00;;
10641;SDS011;5369;49.586;8.646;2023-05-20T14:20:42;6.67;;;6.07;;
10641;SDS011;5369;49.586;8.646;2023-05-20T14:23:09;6.00;;;5.40;;
10641;SDS011;5369;49.586;8.646;2023-05-20T14:25:35;8.40;;;6.23;;
10641;SDS011;5369;49.586;8.646;2023-05-20T14:28:01;6.67;;;5.97;;
10641;SDS011;5369;49.586;8.646;2023-05-20T14:30:28;6.37;;;5.77;;
10641;SDS011;5369;49.586;8.646;2023-05-20T14:32:54;8.03;;;6.23;;
10641;SDS011;5369;49.586;8.646;2023-05-20T14:35:20;6.97;;;6.00;;
10641;SDS011;5369;49.586;8.646;2023-05-20T14:37:46;6.80;;;6.20;;
10641;SDS011;5369;49.586;8.646;2023-05-20T14:40:12;6.80;;;6.10;;
10641;SDS011;5369;49.586;8.646;2023-05-20T14:42:38;6.77;;;6.13;;
10641;SDS011;5369;49.586;8.646;2023-05-20T14:45:05;6.97;;;6.30;;
10641;SDS011;5369;49.586;8.646;2023-05-20T14:47:31;6.23;;;5.63;;
10641;SDS011;5369;49.586;8.646;2023-05-20T14:49:58;6.70;;;6.20;;
10641;SDS011;5369;49.586;8.646;2023-05-20T14:52:27;6.20;;;5.70;;
10641;SDS011;5369;49.586;8.646;2023-05-20T14:54:53;6.30;;;5.80;;
10641;SDS011;5369;49.586;8.646;2023-05-20T14:57:20;7.73;;;6.43;;
10641;SDS011;5369;49.586;8.646;2023-05-20T14:59:47;6.90;;;6.30;;
10641;SDS011;5369;49.586;8.646;2023-05-20T15:02:15;6.53;;;6.03;;
10641;SDS011;5369;49.586;8.646;2023-05-20T15:04:41;6.80;;;6.20;;
10641;SDS011;5369;49.586;8.646;2023-05-20T15:07:10;7.43;;;6.73;;